Time;durP1;ratioP1;P1;durP2;ratioP2;P2;SDS_P1;SDS_P2;PMS_P1;PMS_P2;Temp;Humidity;BMP_temperature;BMP_pressure;BME280_temperature;BME280_humidity;BME280_pressure;Samples;Min_cycle;Max_cycle;Signal;HPM_P1;HPM_P2
2022/06/01 00:00:12;;;;;;;6.70;5.00;;;;;;;;;;5056303;28;20803;-56
2022/06/01 00:02:39;;;;;;;5.40;5.00;;;;;;;;;;5056064;28;20458;-54
2022/06/01 00:05:06;;;;;;;4.80;4.50;;;;;;;;;;5056232;28;20484;-53
2022/06/01 00:07:33;;;;;;;5.30;4.90;;;;;;;;;;5056034;28;20942;-54
2022/06/01 00:10:01;;;;;;;5.67;5.23;;;;;;;;;;5056191;28;20922;-56
2022/06/01 00:12:29;;;;;;;5.20;4.50;;;;;;;;;;5056052;28;20448;-55
2022/06/01 00:14:56;;;;;;;5.27;4.80;;;;;;;;;;5055940;28;20502;-53
2022/06/01 00:17:24;;;;;;;7.40;5.23;;;;;;;;;;5055922;28;20446;-56
2022/06/01 00:19:51;;;;;;;6.90;5.60;;;;;;;;;;5055781;28;20978;-56
2022/06/01 00:22:18;;;;;;;6.00;5.60;;;;;;;;;;5055798;28;20448;-56
2022/06/01 00:24:47;;;;;;;5.03;4.73;;;;;;;;;;5055932;28;20451;-56
2022/06/01 00:27:16;;;;;;;5.70;5.30;;;;;;;;;;5055755;28;20555;-55
2022/06/01 00:29:43;;;;;;;4.90;4.47;;;;;;;;;;5055963;28;20468;-56
2022/06/01 00:32:11;;;;;;;5.33;4.93;;;;;;;;;;5056121;28;20531;-55
2022/06/01 00:34:39;;;;;;;5.50;5.10;;;;;;;;;;5054316;28;20453;-56
2022/06/01 00:37:06;;;;;;;6.97;6.27;;;;;;;;;;5055596;28;20803;-55
2022/06/01 00:39:33;;;;;;;5.67;5.20;;;;;;;;;;5055491;28;20444;-54
2022/06/01 00:42:09;;;;;;;4.90;4.63;;;;;;;;;;5055502;28;20536;-56
2022/06/01 00:44:37;;;;;;;5.60;5.23;;;;;;;;;;5055196;28;20885;-55
2022/06/01 00:47:04;;;;;;;5.30;4.90;;;;;;;;;;5055409;28;20527;-55
2022/06/01 00:49:32;;;;;;;5.70;5.20;;;;;;;;;;5055386;28;20455;-56
2022/06/01 00:51:58;;;;;;;5.83;5.30;;;;;;;;;;5055359;28;20452;-56
2022/06/01 00:54:27;;;;;;;6.13;5.70;;;;;;;;;;5055300;28;20448;-55
2022/06/01 00:56:57;;;;;;;6.20;5.70;;;;;;;;;;5055089;28;20461;-56
2022/06/01 00:59:26;;;;;;;7.13;6.50;;;;;;;;;;5055569;28;20499;-56
2022/06/01 01:01:55;;;;;;;7.10;6.60;;;;;;;;;;5055457;28;20552;-56
2022/06/01 01:04:23;;;;;;;7.10;6.60;;;;;;;;;;5055162;28;20896;-54
2022/06/01 01:06:50;;;;;;;6.80;6.30;;;;;;;;;;5054901;28;20534;-55
2022/06/01 01:09:18;;;;;;;6.50;6.10;;;;;;;;;;5055392;28;20522;-56
2022/06/01 01:11:47;;;;;;;6.90;6.40;;;;;;;;;;5055091;28;20480;-52
2022/06/01 01:14:16;;;;;;;7.70;7.00;;;;;;;;;;5055113;28;20539;-55
2022/06/01 01:16:43;;;;;;;7.90;7.23;;;;;;;;;;5054965;28;20955;-56
2022/06/01 01:19:16;;;;;;;6.63;6.10;;;;;;;;;;5054671;28;20452;-56
2022/06/01 01:21:48;;;;;;;7.30;6.60;;;;;;;;;;5054721;28;20476;-56
2022/06/01 01:24:20;;;;;;;7.53;6.93;;;;;;;;;;5055228;28;20452;-57
2022/06/01 01:26:49;;;;;;;6.50;6.00;;;;;;;;;;5054643;28;20484;-56
2022/06/01 01:29:17;;;;;;;8.17;7.30;;;;;;;;;;5054636;28;20452;-56
2022/06/01 01:31:44;;;;;;;7.20;6.70;;;;;;;;;;5054537;28;20448;-56
2022/06/01 01:34:11;;;;;;;6.30;5.90;;;;;;;;;;5054396;28;20448;-56
2022/06/01 01:36:42;;;;;;;8.40;7.70;;;;;;;;;;5054658;28;20476;-55
2022/06/01 01:39:11;;;;;;;7.90;7.30;;;;;;;;;;5054546;28;20445;-56
2022/06/01 01:41:41;;;;;;;7.80;7.20;;;;;;;;;;5054282;28;20440;-56
2022/06/01 01:44:11;;;;;;;9.00;8.27;;;;;;;;;;5054443;28;20856;-56
2022/06/01 01:46:39;;;;;;;8.70;7.90;;;;;;;;;;5053722;28;20483;-56
2022/06/01 01:49:06;;;;;;;8.77;7.87;;;;;;;;;;5054394;28;20527;-56
2022/06/01 01:51:34;;;;;;;8.23;7.63;;;;;;;;;;5054242;28;20448;-57
2022/06/01 01:54:01;;;;;;;9.30;8.57;;;;;;;;;;5054193;28;20521;-56
2022/06/01 01:56:49;;;;;;;8.93;8.23;;;;;;;;;;5054070;28;20448;-56
2022/06/01 01:59:23;;;;;;;8.63;7.93;;;;;;;;;;5028867;28;20534;-56
2022/06/01 02:01:53;;;;;;;9.13;8.43;;;;;;;;;;5054151;28;20940;-58
2022/06/01 02:07:10;;;;;;;8.93;8.33;;;;;;;;;;5053759;28;20478;-56
2022/06/01 02:15:05;;;;;;;9.20;8.40;;;;;;;;;;5053684;28;20439;-56
2022/06/01 02:17:35;;;;;;;9.90;9.00;;;;;;;;;;5053820;28;21027;-56
2022/06/01 02:20:05;;;;;;;9.67;8.97;;;;;;;;;;5053462;28;20867;-56
2022/06/01 02:22:34;;;;;;;9.93;9.20;;;;;;;;;;5053688;28;20485;-56
2022/06/01 02:25:01;;;;;;;10.40;9.40;;;;;;;;;;5053901;28;20444;-56
2022/06/01 02:27:29;;;;;;;9.87;9.07;;;;;;;;;;5053434;28;20465;-55
2022/06/01 02:29:57;;;;;;;9.87;9.17;;;;;;;;;;5053734;28;20459;-56
2022/06/01 02:32:26;;;;;;;9.40;8.47;;;;;;;;;;5053365;28;20452;-56
2022/06/01 02:34:54;;;;;;;8.80;8.00;;;;;;;;;;5053315;28;20533;-56
2022/06/01 02:37:21;;;;;;;8.37;7.77;;;;;;;;;;5053402;28;20452;-55
2022/06/01 02:39:52;;;;;;;9.60;8.90;;;;;;;;;;5053539;28;20874;-55
2022/06/01 02:42:29;;;;;;;8.60;8.00;;;;;;;;;;5053503;28;20460;-56
2022/06/01 02:44:56;;;;;;;9.57;8.83;;;;;;;;;;5053320;28;20472;-55
2022/06/01 02:47:23;;;;;;;8.80;8.00;;;;;;;;;;5053530;28;20579;-54
2022/06/01 02:49:52;;;;;;;9.80;8.90;;;;;;;;;;5053462;28;20450;-57
2022/06/01 02:52:19;;;;;;;9.80;8.57;;;;;;;;;;5053012;28;20940;-56
2022/06/01 02:54:46;;;;;;;10.77;8.63;;;;;;;;;;5053103;28;20539;-52
2022/06/01 02:57:13;;;;;;;8.93;8.23;;;;;;;;;;5052227;28;20974;-56
2022/06/01 02:59:40;;;;;;;8.20;7.60;;;;;;;;;;5052915;28;20444;-56
2022/06/01 03:02:09;;;;;;;9.70;8.80;;;;;;;;;;5052915;28;20487;-56
2022/06/01 03:04:36;;;;;;;9.90;9.10;;;;;;;;;;5052857;28;20474;-54
2022/06/01 03:07:05;;;;;;;9.97;9.00;;;;;;;;;;5052830;28;20820;-53
2022/06/01 03:09:32;;;;;;;8.90;8.20;;;;;;;;;;5052881;28;20548;-56
2022/06/01 03:11:59;;;;;;;8.50;7.87;;;;;;;;;;5052775;28;20455;-54
2022/06/01 03:14:27;;;;;;;9.57;8.80;;;;;;;;;;5052665;28;20448;-53
2022/06/01 03:16:55;;;;;;;8.67;7.87;;;;;;;;;;5052916;28;20506;-55
2022/06/01 03:19:22;;;;;;;9.20;8.40;;;;;;;;;;5052941;28;20513;-55
2022/06/01 03:21:49;;;;;;;10.57;9.67;;;;;;;;;;5052902;28;20456;-56
2022/06/01 03:24:17;;;;;;;10.50;9.70;;;;;;;;;;5052653;28;20448;-56
2022/06/01 03:26:44;;;;;;;11.93;10.87;;;;;;;;;;5052561;28;20486;-56
2022/06/01 03:29:12;;;;;;;10.50;9.60;;;;;;;;;;5053062;28;20539;-56
2022/06/01 03:31:39;;;;;;;10.00;9.20;;;;;;;;;;5052800;28;20452;-56
2022/06/01 03:34:06;;;;;;;10.97;10.07;;;;;;;;;;5052744;28;20534;-56
2022/06/01 03:36:33;;;;;;;9.93;9.27;;;;;;;;;;5052681;28;20535;-56
2022/06/01 03:39:00;;;;;;;10.73;9.93;;;;;;;;;;5052614;28;20452;-55
2022/06/01 03:41:28;;;;;;;11.10;10.10;;;;;;;;;;5052494;28;20807;-56
2022/06/01 03:46:40;;;;;;;9.97;9.17;;;;;;;;;;5052762;28;20471;-56
2022/06/01 03:49:07;;;;;;;10.50;9.50;;;;;;;;;;5052548;28;20448;-55
2022/06/01 03:51:36;;;;;;;10.30;9.57;;;;;;;;;;5052449;28;20539;-56
2022/06/01 03:54:06;;;;;;;9.63;8.73;;;;;;;;;;5052376;28;21070;-55
2022/06/01 03:56:34;;;;;;;9.70;8.83;;;;;;;;;;5052547;28;20456;-57
2022/06/01 03:59:01;;;;;;;10.53;9.67;;;;;;;;;;5052508;28;20541;-56
2022/06/01 04:01:28;;;;;;;10.07;9.17;;;;;;;;;;5052436;28;20455;-55
2022/06/01 04:03:55;;;;;;;10.50;9.70;;;;;;;;;;5052375;28;20535;-56
2022/06/01 04:06:22;;;;;;;9.80;9.10;;;;;;;;;;5052161;28;20832;-56
2022/06/01 04:08:49;;;;;;;9.90;9.10;;;;;;;;;;5054245;28;20459;-56
2022/06/01 04:11:16;;;;;;;11.57;10.47;;;;;;;;;;5056280;28;20539;-56
2022/06/01 04:13:44;;;;;;;10.50;9.70;;;;;;;;;;5056164;28;20539;-56
2022/06/01 04:16:11;;;;;;;11.13;10.03;;;;;;;;;;5056027;28;20458;-56
2022/06/01 04:18:38;;;;;;;11.47;10.67;;;;;;;;;;5055858;28;20452;-57
2022/06/01 04:21:05;;;;;;;10.70;9.83;;;;;;;;;;5056234;28;20548;-55
2022/06/01 04:23:32;;;;;;;12.37;11.20;;;;;;;;;;5055966;28;20452;-56
2022/06/01 04:25:59;;;;;;;11.50;10.57;;;;;;;;;;5055640;28;20993;-57
2022/06/01 04:28:26;;;;;;;12.80;11.80;;;;;;;;;;5055653;28;20563;-56
2022/06/01 04:30:54;;;;;;;11.97;11.07;;;;;;;;;;5055750;28;20535;-56
2022/06/01 04:33:21;;;;;;;11.83;10.93;;;;;;;;;;5055648;28;20547;-57
2022/06/01 04:35:48;;;;;;;11.37;10.57;;;;;;;;;;5055474;28;20535;-56
2022/06/01 04:38:15;;;;;;;15.47;13.50;;;;;;;;;;5055573;28;20904;-56
2022/06/01 04:40:43;;;;;;;11.97;10.93;;;;;;;;;;5055628;28;20801;-56
2022/06/01 04:43:10;;;;;;;12.50;11.60;;;;;;;;;;5055367;28;20827;-55
2022/06/01 04:45:37;;;;;;;12.80;11.80;;;;;;;;;;5055333;28;20894;-56
2022/06/01 04:48:05;;;;;;;11.77;10.77;;;;;;;;;;5055063;28;20486;-56
2022/06/01 04:50:33;;;;;;;12.10;11.20;;;;;;;;;;5055390;28;20548;-56
2022/06/01 04:53:00;;;;;;;9.97;9.17;;;;;;;;;;5055250;28;20484;-56
2022/06/01 04:55:27;;;;;;;11.53;10.53;;;;;;;;;;5055313;28;20448;-56
2022/06/01 04:57:54;;;;;;;10.80;9.90;;;;;;;;;;5055120;28;20433;-56
2022/06/01 05:00:23;;;;;;;10.83;9.83;;;;;;;;;;5054782;28;20531;-56
2022/06/01 05:02:50;;;;;;;10.53;9.73;;;;;;;;;;5054826;28;20449;-56
2022/06/01 05:05:18;;;;;;;10.33;9.53;;;;;;;;;;5055018;28;20546;-57
2022/06/01 05:07:45;;;;;;;11.10;10.30;;;;;;;;;;5054843;28;20916;-57
2022/06/01 05:10:12;;;;;;;11.00;10.00;;;;;;;;;;5054893;28;20447;-56
2022/06/01 05:12:39;;;;;;;10.83;10.03;;;;;;;;;;5054907;28;20453;-56
2022/06/01 05:15:06;;;;;;;10.27;9.47;;;;;;;;;;5054737;28;20815;-54
2022/06/01 05:17:33;;;;;;;10.87;9.97;;;;;;;;;;5054948;28;20449;-56
2022/06/01 05:20:00;;;;;;;10.60;9.80;;;;;;;;;;5053995;28;20448;-56
2022/06/01 05:22:28;;;;;;;11.13;10.30;;;;;;;;;;5054968;28;20448;-56
2022/06/01 05:24:55;;;;;;;11.00;10.20;;;;;;;;;;5054630;28;20811;-56
2022/06/01 05:27:23;;;;;;;10.30;9.60;;;;;;;;;;5054393;28;21049;-54
2022/06/01 05:29:50;;;;;;;10.00;9.30;;;;;;;;;;5054434;28;20540;-56
2022/06/01 05:32:17;;;;;;;10.40;9.50;;;;;;;;;;5054671;28;20543;-56
2022/06/01 05:34:44;;;;;;;9.57;8.87;;;;;;;;;;5054529;28;20543;-54
2022/06/01 05:37:11;;;;;;;9.93;9.23;;;;;;;;;;5054389;28;20974;-57
2022/06/01 05:39:39;;;;;;;9.03;8.33;;;;;;;;;;5054411;28;20458;-56
2022/06/01 05:42:07;;;;;;;11.47;9.70;;;;;;;;;;5054334;28;20543;-55
2022/06/01 05:44:34;;;;;;;10.50;9.50;;;;;;;;;;5054014;28;20508;-55
2022/06/01 05:47:03;;;;;;;10.50;9.73;;;;;;;;;;5053993;28;20533;-54
2022/06/01 05:49:30;;;;;;;10.00;9.30;;;;;;;;;;5053961;28;20570;-56
2022/06/01 05:51:57;;;;;;;14.40;12.87;;;;;;;;;;5053948;28;20627;-55
2022/06/01 05:54:24;;;;;;;9.93;9.03;;;;;;;;;;5053870;28;20444;-56
2022/06/01 05:56:52;;;;;;;9.13;8.10;;;;;;;;;;5053745;28;20535;-56
2022/06/01 05:59:19;;;;;;;7.73;7.20;;;;;;;;;;5054058;28;20551;-57
2022/06/01 06:01:46;;;;;;;8.43;7.73;;;;;;;;;;5054009;28;20547;-54
2022/06/01 06:04:13;;;;;;;7.10;6.60;;;;;;;;;;5053709;28;20455;-57
2022/06/01 06:06:40;;;;;;;7.33;6.73;;;;;;;;;;5053515;28;20813;-56
2022/06/01 06:09:09;;;;;;;7.53;6.93;;;;;;;;;;5053479;28;20932;-56
2022/06/01 06:11:37;;;;;;;8.30;7.73;;;;;;;;;;5054097;28;20547;-55
2022/06/01 06:14:06;;;;;;;7.60;6.80;;;;;;;;;;5053649;28;20536;-55
2022/06/01 06:16:35;;;;;;;6.90;6.30;;;;;;;;;;5053651;28;20453;-55
2022/06/01 06:19:03;;;;;;;7.10;6.60;;;;;;;;;;5053699;28;20812;-56
2022/06/01 06:21:31;;;;;;;8.27;6.23;;;;;;;;;;5053443;28;20455;-53
2022/06/01 06:23:59;;;;;;;7.63;7.03;;;;;;;;;;5053186;28;20527;-55
2022/06/01 06:26:26;;;;;;;6.10;5.70;;;;;;;;;;5053663;28;20480;-56
2022/06/01 06:28:53;;;;;;;6.20;5.73;;;;;;;;;;5053252;28;20506;-57
2022/06/01 06:31:22;;;;;;;6.57;6.07;;;;;;;;;;5052936;28;21007;-55
2022/06/01 06:33:49;;;;;;;5.83;5.43;;;;;;;;;;5053188;28;20548;-57
2022/06/01 06:36:16;;;;;;;5.50;5.10;;;;;;;;;;5052921;28;20464;-55
2022/06/01 06:38:43;;;;;;;6.17;5.77;;;;;;;;;;5053228;28;20544;-56
2022/06/01 06:41:11;;;;;;;6.13;5.73;;;;;;;;;;5053191;28;20510;-57
2022/06/01 06:43:38;;;;;;;5.43;5.03;;;;;;;;;;5052898;28;20480;-56
2022/06/01 06:46:07;;;;;;;5.83;5.37;;;;;;;;;;5053016;28;20479;-56
2022/06/01 06:48:35;;;;;;;5.77;5.17;;;;;;;;;;5052735;28;20514;-56
2022/06/01 06:51:02;;;;;;;4.80;4.50;;;;;;;;;;5052733;28;20487;-57
2022/06/01 06:53:29;;;;;;;3.90;3.70;;;;;;;;;;5052794;28;20539;-57
2022/06/01 06:55:57;;;;;;;4.13;3.80;;;;;;;;;;5053052;28;20912;-56
2022/06/01 06:58:24;;;;;;;6.57;4.33;;;;;;;;;;5052893;28;20903;-55
2022/06/01 07:00:51;;;;;;;3.93;3.63;;;;;;;;;;5052895;28;20535;-56
2022/06/01 07:03:18;;;;;;;5.40;3.80;;;;;;;;;;5052785;28;20799;-57
2022/06/01 07:08:31;;;;;;;3.27;2.97;;;;;;;;;;5052684;28;20824;-56
2022/06/01 07:10:59;;;;;;;3.30;3.00;;;;;;;;;;5052702;28;20547;-57
2022/06/01 07:13:27;;;;;;;4.50;3.83;;;;;;;;;;5052631;28;20539;-56
2022/06/01 07:16:01;;;;;;;3.90;3.60;;;;;;;;;;5052601;28;20448;-57
2022/06/01 07:18:29;;;;;;;2.77;2.67;;;;;;;;;;5052791;28;20538;-57
2022/06/01 07:20:57;;;;;;;3.20;3.00;;;;;;;;;;5052717;28;20449;-56
2022/06/01 07:23:25;;;;;;;3.07;2.87;;;;;;;;;;5050492;28;20495;-62
2022/06/01 07:25:52;;;;;;;3.47;3.10;;;;;;;;;;5052711;28;20452;-62
2022/06/01 07:28:21;;;;;;;3.10;2.90;;;;;;;;;;5052564;28;20491;-62
2022/06/01 07:30:49;;;;;;;3.40;3.20;;;;;;;;;;5052509;28;20454;-62
2022/06/01 07:33:16;;;;;;;3.20;3.00;;;;;;;;;;5052767;28;20804;-62
2022/06/01 07:35:43;;;;;;;2.40;2.20;;;;;;;;;;5052961;28;20616;-62
2022/06/01 07:43:40;;;;;;;5.03;3.60;;;;;;;;;;5054155;28;20513;-62
2022/06/01 07:46:08;;;;;;;5.27;4.07;;;;;;;;;;5056246;28;20546;-62
2022/06/01 07:48:35;;;;;;;4.90;3.67;;;;;;;;;;5056358;28;20563;-62
2022/06/01 07:51:02;;;;;;;4.03;3.50;;;;;;;;;;5056331;28;20543;-62
2022/06/01 07:53:30;;;;;;;3.90;3.70;;;;;;;;;;5056181;28;20452;-62
2022/06/01 07:55:57;;;;;;;3.80;3.50;;;;;;;;;;5056434;28;20803;-62
2022/06/01 07:58:24;;;;;;;3.00;2.90;;;;;;;;;;5056115;28;21134;-62
2022/06/01 08:00:51;;;;;;;3.90;3.60;;;;;;;;;;5056191;28;20944;-61
2022/06/01 08:03:20;;;;;;;4.17;3.83;;;;;;;;;;5056154;28;20483;-62
2022/06/01 08:05:47;;;;;;;4.23;4.00;;;;;;;;;;5056367;28;20463;-62
2022/06/01 08:08:14;;;;;;;3.93;3.73;;;;;;;;;;5055814;28;21043;-61
2022/06/01 08:10:42;;;;;;;4.00;3.80;;;;;;;;;;5056383;28;20535;-61
2022/06/01 08:13:10;;;;;;;4.57;3.60;;;;;;;;;;5056083;28;20466;-61
2022/06/01 08:15:39;;;;;;;4.20;3.90;;;;;;;;;;5058288;28;20816;-61
2022/06/01 08:18:06;;;;;;;3.80;3.60;;;;;;;;;;5048112;28;20556;-62
2022/06/01 08:20:34;;;;;;;4.40;4.10;;;;;;;;;;5048557;28;20459;-59
2022/06/01 08:23:01;;;;;;;4.67;4.17;;;;;;;;;;5038642;28;20450;-59
2022/06/01 08:25:29;;;;;;;3.33;3.00;;;;;;;;;;5049798;28;20456;-59
2022/06/01 08:27:57;;;;;;;3.17;2.87;;;;;;;;;;5061974;28;20550;-60
2022/06/01 08:30:25;;;;;;;3.43;3.13;;;;;;;;;;5055688;28;20787;-68
2022/06/01 08:32:53;;;;;;;3.50;3.30;;;;;;;;;;5055618;28;20452;-64
2022/06/01 08:35:21;;;;;;;4.33;4.07;;;;;;;;;;5055518;28;20513;-62
2022/06/01 08:37:48;;;;;;;3.40;3.20;;;;;;;;;;5055520;28;20460;-60
2022/06/01 08:40:16;;;;;;;3.97;3.77;;;;;;;;;;5057767;28;20456;-59
2022/06/01 08:42:45;;;;;;;3.10;2.90;;;;;;;;;;5055259;28;20456;-60
2022/06/01 08:45:14;;;;;;;4.17;3.90;;;;;;;;;;5053667;28;20459;-61
2022/06/01 08:47:42;;;;;;;4.10;3.70;;;;;;;;;;5057389;28;20525;-59
2022/06/01 08:50:12;;;;;;;3.47;3.13;;;;;;;;;;5043213;28;20496;-58
2022/06/01 08:52:39;;;;;;;2.57;2.47;;;;;;;;;;5040134;28;20459;-59
2022/06/01 08:55:06;;;;;;;11.23;5.97;;;;;;;;;;5053995;28;20582;-57
2022/06/01 08:57:39;;;;;;;2.20;2.10;;;;;;;;;;5056946;28;20900;-58
2022/06/01 09:00:08;;;;;;;2.40;2.20;;;;;;;;;;5053275;28;20543;-60
2022/06/01 09:02:40;;;;;;;2.63;2.33;;;;;;;;;;5041678;28;20458;-60
2022/06/01 09:05:11;;;;;;;10.83;5.27;;;;;;;;;;5043399;28;20456;-60
2022/06/01 09:07:40;;;;;;;7.10;3.83;;;;;;;;;;5054925;28;20454;-60
2022/06/01 09:10:14;;;;;;;1.70;1.60;;;;;;;;;;5039752;28;20448;-60
2022/06/01 09:12:42;;;;;;;2.67;2.47;;;;;;;;;;5045876;28;20457;-58
2022/06/01 09:15:13;;;;;;;2.47;2.00;;;;;;;;;;5054799;28;20448;-58
2022/06/01 09:17:43;;;;;;;6.90;2.20;;;;;;;;;;5054057;28;20979;-62
2022/06/01 09:22:57;;;;;;;2.40;2.30;;;;;;;;;;5051553;28;20471;-61
2022/06/01 09:25:28;;;;;;;2.50;2.27;;;;;;;;;;5036255;28;20488;-60
2022/06/01 09:27:59;;;;;;;3.73;1.93;;;;;;;;;;5035038;28;20640;-58
2022/06/01 09:30:28;;;;;;;2.00;1.90;;;;;;;;;;5052133;28;20456;-59
2022/06/01 09:33:03;;;;;;;2.60;2.40;;;;;;;;;;5054304;28;20452;-70
2022/06/01 09:35:33;;;;;;;2.77;2.30;;;;;;;;;;5054839;28;20539;-69
2022/06/01 09:38:03;;;;;;;2.80;1.97;;;;;;;;;;5057148;28;20463;-64
2022/06/01 09:40:31;;;;;;;2.40;2.20;;;;;;;;;;5055143;28;20456;-65
2022/06/01 09:43:00;;;;;;;2.40;2.20;;;;;;;;;;5038912;28;20580;-67
2022/06/01 09:45:28;;;;;;;2.23;2.13;;;;;;;;;;5034525;28;20826;-53
2022/06/01 09:48:06;;;;;;;1.90;1.80;;;;;;;;;;5034128;28;20548;-63
2022/06/01 09:50:35;;;;;;;2.90;2.23;;;;;;;;;;5046657;28;20543;-64
2022/06/01 09:53:13;;;;;;;1.83;1.73;;;;;;;;;;5054290;28;20527;-59
2022/06/01 09:55:50;;;;;;;2.87;2.07;;;;;;;;;;5054038;28;20534;-60
2022/06/01 10:06:05;;;;;;;2.30;2.10;;;;;;;;;;5053831;28;20906;-60
2022/06/01 10:06:53;;;;;;;3.00;2.17;;;;;;;;;;5053396;28;20463;-61
2022/06/01 10:09:22;;;;;;;9.30;4.93;;;;;;;;;;5037107;28;21008;-61
2022/06/01 10:11:51;;;;;;;9.00;4.37;;;;;;;;;;5033743;28;20540;-61
2022/06/01 10:14:19;;;;;;;6.18;4.70;;;;;;;;;;5033359;28;20994;-60
2022/06/01 10:16:57;;;;;;;6.30;4.90;;;;;;;;;;5033723;28;20286;-53
2022/06/01 10:19:26;;;;;;;6.10;5.00;;;;;;;;;;5041669;28;20462;-56
2022/06/01 10:21:57;;;;;;;7.20;5.63;;;;;;;;;;5053502;28;20444;-61
2022/06/01 10:24:25;;;;;;;8.27;4.97;;;;;;;;;;5053403;28;20523;-58
2022/06/01 10:26:55;;;;;;;7.13;5.30;;;;;;;;;;5044656;28;20458;-59
2022/06/01 10:29:26;;;;;;;6.53;4.50;;;;;;;;;;5033876;28;20481;-56
2022/06/01 10:31:55;;;;;;;4.13;3.83;;;;;;;;;;5033095;28;20434;-56
2022/06/01 10:34:24;;;;;;;4.30;3.90;;;;;;;;;;5033580;28;20653;-56
2022/06/01 10:36:57;;;;;;;3.80;3.60;;;;;;;;;;5033412;28;20481;-60
2022/06/01 10:39:29;;;;;;;4.00;3.60;;;;;;;;;;5049834;28;20540;-59
2022/06/01 10:42:02;;;;;;;4.10;3.80;;;;;;;;;;5052660;28;20539;-60
2022/06/01 10:44:33;;;;;;;3.17;2.97;;;;;;;;;;5050380;28;20562;-58
2022/06/01 10:47:02;;;;;;;3.40;3.20;;;;;;;;;;5055789;28;20456;-60
2022/06/01 10:49:41;;;;;;;3.77;3.47;;;;;;;;;;5056317;28;21030;-60
2022/06/01 10:52:15;;;;;;;3.70;3.50;;;;;;;;;;5052556;28;20878;-58
2022/06/01 10:54:46;;;;;;;5.60;3.80;;;;;;;;;;5055597;28;20800;-60
2022/06/01 10:57:16;;;;;;;3.03;2.83;;;;;;;;;;5052843;28;20889;-59
2022/06/01 10:59:43;;;;;;;4.00;3.70;;;;;;;;;;5053286;28;20447;-58
2022/06/01 11:02:16;;;;;;;3.93;3.63;;;;;;;;;;5058133;28;20546;-57
2022/06/01 11:04:54;;;;;;;3.67;3.47;;;;;;;;;;5056626;28;20476;-61
2022/06/01 11:07:34;;;;;;;3.73;3.40;;;;;;;;;;5052491;28;20543;-60
2022/06/01 11:10:05;;;;;;;3.67;2.93;;;;;;;;;;5053304;28;20499;-60
2022/06/01 11:12:35;;;;;;;3.00;2.43;;;;;;;;;;5053112;28;20812;-61
2022/06/01 11:15:11;;;;;;;2.70;2.50;;;;;;;;;;5055649;28;20452;-65
2022/06/01 11:17:44;;;;;;;2.70;2.60;;;;;;;;;;5055901;28;20534;-61
2022/06/01 11:20:20;;;;;;;2.77;2.57;;;;;;;;;;5046094;28;20499;-56
2022/06/01 11:22:52;;;;;;;2.60;2.50;;;;;;;;;;5039911;28;20823;-61
2022/06/01 11:25:22;;;;;;;3.33;3.03;;;;;;;;;;5032872;28;20472;-62
2022/06/01 11:28:08;;;;;;;2.80;2.70;;;;;;;;;;5044541;28;21127;-60
2022/06/01 11:30:38;;;;;;;3.20;3.00;;;;;;;;;;5032775;28;20571;-62
2022/06/01 11:33:10;;;;;;;4.93;3.30;;;;;;;;;;5032591;28;20453;-62
2022/06/01 11:35:39;;;;;;;2.83;2.70;;;;;;;;;;5032637;28;20512;-59
2022/06/01 11:38:09;;;;;;;3.90;3.57;;;;;;;;;;5051101;28;20543;-61
2022/06/01 11:40:43;;;;;;;6.50;2.73;;;;;;;;;;5044208;28;20452;-62
2022/06/01 11:43:14;;;;;;;2.87;2.67;;;;;;;;;;5052694;28;20464;-60
2022/06/01 11:45:43;;;;;;;3.43;3.23;;;;;;;;;;5052489;28;20456;-59
2022/06/01 11:48:11;;;;;;;2.30;2.20;;;;;;;;;;5052484;28;20487;-61
2022/06/01 11:50:54;;;;;;;2.17;1.97;;;;;;;;;;5052206;28;20851;-68
2022/06/01 11:53:22;;;;;;;3.13;2.10;;;;;;;;;;5052590;28;20448;-60
2022/06/01 11:55:50;;;;;;;2.03;1.83;;;;;;;;;;5043618;28;20532;-59
2022/06/01 11:58:22;;;;;;;5.20;1.90;;;;;;;;;;5032550;28;20541;-60
2022/06/01 12:00:55;;;;;;;2.53;1.60;;;;;;;;;;5033009;28;20453;-62
2022/06/01 12:03:33;;;;;;;4.13;1.80;;;;;;;;;;5034681;28;20844;-61
2022/06/01 12:06:02;;;;;;;1.53;1.43;;;;;;;;;;5053436;28;20451;-61
2022/06/01 12:08:32;;;;;;;1.67;1.40;;;;;;;;;;5044792;28;20449;-59
2022/06/01 12:11:03;;;;;;;1.70;1.60;;;;;;;;;;5032282;28;20449;-61
2022/06/01 12:13:31;;;;;;;5.40;1.20;;;;;;;;;;5047828;28;20460;-61
2022/06/01 12:16:09;;;;;;;1.57;1.33;;;;;;;;;;5051255;28;20808;-60
2022/06/01 12:18:36;;;;;;;1.47;1.37;;;;;;;;;;5039566;28;20488;-62
2022/06/01 12:21:19;;;;;;;2.42;1.00;;;;;;;;;;5044672;28;20799;-63
2022/06/01 12:29:59;;;;;;;1.23;1.13;;;;;;;;;;5033482;28;20481;-59
2022/06/01 12:32:26;;;;;;;1.70;1.20;;;;;;;;;;5054195;28;20480;-59
2022/06/01 12:34:59;;;;;;;2.70;1.30;;;;;;;;;;5055679;28;20459;-61
2022/06/01 12:37:28;;;;;;;1.10;1.10;;;;;;;;;;5060916;28;20194;-61
2022/06/01 12:39:57;;;;;;;2.00;1.20;;;;;;;;;;5061811;28;20448;-61
2022/06/01 12:42:28;;;;;;;2.57;1.27;;;;;;;;;;5055922;28;20543;-61
2022/06/01 12:44:57;;;;;;;2.87;1.40;;;;;;;;;;5055278;28;20472;-61
2022/06/01 12:47:25;;;;;;;1.83;1.63;;;;;;;;;;5058522;28;20451;-61
2022/06/01 12:49:52;;;;;;;1.07;0.97;;;;;;;;;;5055380;28;20851;-62
2022/06/01 12:52:20;;;;;;;1.63;1.03;;;;;;;;;;5055306;28;20448;-62
2022/06/01 12:54:54;;;;;;;1.93;0.93;;;;;;;;;;5055184;28;20527;-62
2022/06/01 12:57:24;;;;;;;1.30;1.00;;;;;;;;;;5058379;28;20451;-58
2022/06/01 12:59:58;;;;;;;3.40;1.10;;;;;;;;;;5055022;28;21352;-57
2022/06/01 13:02:25;;;;;;;1.33;1.23;;;;;;;;;;5058119;28;20535;-61
2022/06/01 13:04:53;;;;;;;1.20;1.10;;;;;;;;;;5044764;28;21039;-61
2022/06/01 13:07:20;;;;;;;1.03;0.93;;;;;;;;;;5034888;28;20480;-61
2022/06/01 13:09:57;;;;;;;1.80;0.90;;;;;;;;;;5036440;28;20471;-61
2022/06/01 13:12:28;;;;;;;1.63;0.93;;;;;;;;;;5054718;28;20444;-61
2022/06/01 13:14:55;;;;;;;2.20;1.10;;;;;;;;;;5054749;28;20448;-61
2022/06/01 13:17:25;;;;;;;1.33;1.17;;;;;;;;;;5054661;28;20484;-61
2022/06/01 13:19:58;;;;;;;2.10;1.50;;;;;;;;;;5054473;28;20475;-61
2022/06/01 13:22:28;;;;;;;1.73;1.00;;;;;;;;;;5054706;28;20886;-61
2022/06/01 13:24:56;;;;;;;1.00;0.80;;;;;;;;;;5054592;28;20447;-61
2022/06/01 13:27:24;;;;;;;0.77;0.77;;;;;;;;;;5054696;28;20448;-61
2022/06/01 13:29:58;;;;;;;1.47;1.03;;;;;;;;;;5054369;28;20978;-61
2022/06/01 13:32:30;;;;;;;2.23;1.40;;;;;;;;;;5054776;28;20440;-61
2022/06/01 13:35:02;;;;;;;1.10;1.00;;;;;;;;;;5054331;28;20535;-61
2022/06/01 13:37:30;;;;;;;1.90;1.80;;;;;;;;;;5054375;28;20448;-61
2022/06/01 13:39:58;;;;;;;1.27;1.10;;;;;;;;;;5054576;28;20498;-61
2022/06/01 13:42:27;;;;;;;2.67;1.17;;;;;;;;;;5053825;28;20455;-61
2022/06/01 13:44:57;;;;;;;2.27;1.30;;;;;;;;;;5054437;28;20560;-61
2022/06/01 13:47:26;;;;;;;1.00;0.90;;;;;;;;;;5054341;28;20815;-61
2022/06/01 13:50:02;;;;;;;0.90;0.90;;;;;;;;;;5053964;28;20847;-61
2022/06/01 13:52:30;;;;;;;2.47;1.30;;;;;;;;;;5054187;28;20551;-61
2022/06/01 13:55:14;;;;;;;0.90;0.90;;;;;;;;;;5054087;28;20804;-61
2022/06/01 13:57:50;;;;;;;6.07;1.00;;;;;;;;;;5053858;28;20444;-61
2022/06/01 14:00:20;;;;;;;1.03;0.93;;;;;;;;;;5053732;28;20444;-61
2022/06/01 14:02:48;;;;;;;1.00;1.00;;;;;;;;;;5053968;28;20811;-61
2022/06/01 14:05:17;;;;;;;0.93;0.80;;;;;;;;;;5053879;28;20452;-62
2022/06/01 14:07:45;;;;;;;1.13;1.03;;;;;;;;;;5053909;28;20484;-61
2022/06/01 14:10:14;;;;;;;1.57;0.90;;;;;;;;;;5053774;28;20507;-62
2022/06/01 14:12:42;;;;;;;1.33;1.23;;;;;;;;;;5053700;28;20510;-62
2022/06/01 14:15:11;;;;;;;1.53;1.00;;;;;;;;;;5054034;28;20640;-62
2022/06/01 14:17:41;;;;;;;1.43;0.90;;;;;;;;;;5053967;28;21195;-62
2022/06/01 14:20:08;;;;;;;1.30;1.10;;;;;;;;;;5053903;28;20936;-62
2022/06/01 14:22:37;;;;;;;3.07;1.13;;;;;;;;;;5053669;28;20444;-62
2022/06/01 14:30:33;;;;;;;3.50;1.10;;;;;;;;;;5053421;28;20483;-62
2022/06/01 14:33:01;;;;;;;2.37;1.60;;;;;;;;;;5053414;28;20539;-62
2022/06/01 14:35:31;;;;;;;1.27;1.17;;;;;;;;;;5053219;28;20448;-62
2022/06/01 14:37:59;;;;;;;3.77;1.57;;;;;;;;;;5053527;28;20510;-62
2022/06/01 14:40:26;;;;;;;2.57;2.30;;;;;;;;;;5053489;28;20499;-62
2022/06/01 14:42:53;;;;;;;2.40;1.53;;;;;;;;;;5053312;28;20807;-62
2022/06/01 14:45:20;;;;;;;1.93;1.73;;;;;;;;;;5053381;28;20449;-61
2022/06/01 14:47:47;;;;;;;2.17;2.00;;;;;;;;;;5053096;28;20448;-62
2022/06/01 14:50:14;;;;;;;2.20;2.03;;;;;;;;;;5052855;28;20484;-62
2022/06/01 14:52:42;;;;;;;3.70;1.90;;;;;;;;;;5052405;28;20547;-61
2022/06/01 14:55:10;;;;;;;1.90;1.63;;;;;;;;;;5053170;28;20479;-62
2022/06/01 14:57:37;;;;;;;1.77;1.37;;;;;;;;;;5053045;28;20484;-62
2022/06/01 15:00:06;;;;;;;5.47;1.83;;;;;;;;;;5053014;28;20502;-61
2022/06/01 15:02:33;;;;;;;3.47;1.43;;;;;;;;;;5052814;28;20970;-62
2022/06/01 15:05:02;;;;;;;2.60;1.90;;;;;;;;;;5053075;28;20544;-61
2022/06/01 15:07:31;;;;;;;2.23;1.87;;;;;;;;;;5052902;28;20531;-62
2022/06/01 15:09:58;;;;;;;1.50;1.40;;;;;;;;;;5052885;28;20541;-62
2022/06/01 15:12:27;;;;;;;1.60;1.50;;;;;;;;;;5053007;28;20847;-62
2022/06/01 15:14:53;;;;;;;1.90;1.67;;;;;;;;;;5052844;28;20448;-61
2022/06/01 15:17:23;;;;;;;2.20;1.90;;;;;;;;;;5052625;28;20451;-62
2022/06/01 15:19:51;;;;;;;4.33;1.50;;;;;;;;;;5052788;28;20456;-61
2022/06/01 15:22:18;;;;;;;1.70;1.60;;;;;;;;;;5052602;28;20449;-61
2022/06/01 15:24:45;;;;;;;1.73;1.40;;;;;;;;;;5052665;28;20539;-61
2022/06/01 15:27:14;;;;;;;2.53;1.57;;;;;;;;;;5052531;28;20535;-61
2022/06/01 15:40:40;;;;;;;2.70;1.80;;;;;;;;;;5052582;28;20440;-62